Time;durP1;ratioP1;P1;durP2;ratioP2;P2;SDS_P1;SDS_P2;PMS_P1;PMS_P2;Temp;Humidity;BMP_temperature;BMP_pressure;BME280_temperature;BME280_humidity;BME280_pressure;Samples;Min_cycle;Max_cycle;Signal;HPM_P1;HPM_P2
2022/01/21 00:01:09;;;;;;;42.58;18.90;;;;;;;4.41;100.00;103665.41;5030979;28;20044;-83
2022/01/21 00:03:36;;;;;;;42.30;18.67;;;;;;;4.46;100.00;103673.22;5029650;28;20544;-84
2022/01/21 00:06:06;;;;;;;37.35;16.45;;;;;;;4.36;100.00;103669.22;5017962;28;20036;-83
2022/01/21 00:08:38;;;;;;;38.63;15.90;;;;;;;4.49;100.00;103674.91;5056866;28;20028;-83
2022/01/21 00:11:08;;;;;;;34.28;14.10;;;;;;;4.51;100.00;103675.72;5035293;28;20036;-84
2022/01/21 00:13:37;;;;;;;34.17;15.35;;;;;;;4.47;100.00;103668.75;5045018;28;20078;-83
2022/01/21 00:16:20;;;;;;;36.65;16.60;;;;;;;4.43;100.00;103670.69;5026761;28;20648;-84
2022/01/21 00:19:25;;;;;;;36.85;13.93;;;;;;;4.41;100.00;103678.75;5028389;28;20047;-84
2022/01/21 00:30:17;;;;;;;37.85;17.52;;;;;;;4.42;100.00;103666.31;5041230;28;20074;-83
2022/01/21 00:32:44;;;;;;;47.22;21.60;;;;;;;4.45;100.00;103671.50;5030662;28;20032;-83
2022/01/21 00:35:10;;;;;;;37.50;19.20;;;;;;;4.38;100.00;103662.88;5025633;28;20060;-85
2022/01/21 00:37:37;;;;;;;41.58;17.70;;;;;;;4.46;100.00;103675.03;5024355;28;20120;-83
2022/01/21 00:40:04;;;;;;;43.42;18.98;;;;;;;4.37;100.00;103663.84;5015423;28;20095;-83
2022/01/21 00:45:00;;;;;;;46.40;22.08;;;;;;;4.42;100.00;103684.97;5042172;28;20041;-83
2022/01/21 00:47:26;;;;;;;47.05;18.40;;;;;;;4.32;100.00;103667.63;5042158;28;20028;-82
2022/01/21 00:49:52;;;;;;;40.03;17.52;;;;;;;4.37;100.00;103678.97;5044222;28;20124;-83
2022/01/21 00:52:18;;;;;;;39.28;17.45;;;;;;;4.33;100.00;103675.53;5028033;28;20036;-84
2022/01/21 00:54:44;;;;;;;31.85;16.52;;;;;;;4.31;100.00;103671.19;5022368;28;20032;-84
2022/01/21 00:57:09;;;;;;;36.75;16.92;;;;;;;4.28;100.00;103672.19;5023660;28;20037;-84
2022/01/21 00:59:38;;;;;;;39.63;15.98;;;;;;;4.24;100.00;103672.41;5013521;28;20040;-84
2022/01/21 01:02:04;;;;;;;35.13;15.57;;;;;;;4.17;100.00;103654.00;5043187;28;20060;-85
2022/01/21 01:04:30;;;;;;;36.35;17.27;;;;;;;4.20;100.00;103658.31;5030078;28;20127;-84
2022/01/21 01:06:56;;;;;;;37.05;16.90;;;;;;;4.22;100.00;103653.81;5011641;28;20111;-82
2022/01/21 01:09:22;;;;;;;39.75;16.20;;;;;;;4.28;100.00;103650.88;5042018;28;20032;-84
2022/01/21 01:20:07;;;;;;;40.92;17.77;;;;;;;4.22;100.00;103647.63;5028312;28;20309;-83
2022/01/21 01:22:53;;;;;;;40.85;16.48;;;;;;;4.24;100.00;103656.41;5037349;28;20048;-85
2022/01/21 01:28:04;;;;;;;43.83;17.02;;;;;;;4.20;100.00;103655.66;5058848;28;20179;-85
2022/01/21 01:30:33;;;;;;;38.55;15.75;;;;;;;4.18;100.00;103644.19;5028215;28;20190;-86
2022/01/21 01:33:00;;;;;;;34.78;15.15;;;;;;;4.12;100.00;103647.97;5027606;28;20391;-85
2022/01/21 01:35:30;;;;;;;39.88;16.55;;;;;;;4.14;100.00;103650.59;5016713;28;20032;-86
2022/01/21 01:51:17;;;;;;;40.20;14.20;;;;;;;4.16;100.00;103644.28;5040663;28;20035;-83
2022/01/21 01:53:48;;;;;;;38.40;16.25;;;;;;;4.16;100.00;103649.59;5037461;28;20383;-83
2022/01/21 01:56:17;;;;;;;42.88;16.83;;;;;;;4.13;100.00;103654.19;5024822;28;20020;-83
2022/01/21 01:58:43;;;;;;;39.45;16.83;;;;;;;4.04;100.00;103633.25;5040367;28;20040;-84
2022/01/21 02:01:12;;;;;;;44.05;17.08;;;;;;;4.03;100.00;103637.72;5037291;28;20102;-82
2022/01/21 02:03:39;;;;;;;71.90;25.05;;;;;;;4.06;100.00;103639.41;5025192;28;20036;-85
2022/01/21 02:06:04;;;;;;;57.22;19.38;;;;;;;4.12;100.00;103652.44;5023400;28;20044;-83
2022/01/21 02:08:31;;;;;;;43.30;18.85;;;;;;;4.13;100.00;103648.88;5036787;28;20041;-83
2022/01/21 02:10:57;;;;;;;47.30;18.23;;;;;;;4.12;100.00;103647.13;5024595;28;20605;-83
2022/01/21 02:13:32;;;;;;;44.25;17.33;;;;;;;4.02;100.00;103630.66;5025721;28;20608;-83
2022/01/21 02:16:30;;;;;;;41.05;15.48;;;;;;;4.12;100.00;103637.34;5010732;28;20036;-82
2022/01/21 02:21:44;;;;;;;34.53;14.63;;;;;;;4.08;100.00;103643.72;5046925;28;20025;-83
2022/01/21 02:24:15;;;;;;;27.65;13.23;;;;;;;4.05;100.00;103645.63;5044473;28;20036;-82
2022/01/21 02:26:42;;;;;;;23.80;10.95;;;;;;;4.08;100.00;103637.53;5026283;28;20385;-83
2022/01/21 02:29:09;;;;;;;30.38;13.23;;;;;;;4.01;100.00;103630.72;5022394;28;20106;-83
2022/01/21 02:31:37;;;;;;;26.52;11.02;;;;;;;4.03;100.00;103640.38;5052760;28;20043;-83
2022/01/21 02:34:04;;;;;;;31.95;12.00;;;;;;;3.93;100.00;103615.91;5009245;28;20761;-82
2022/01/21 02:36:30;;;;;;;26.15;12.38;;;;;;;4.04;100.00;103646.56;5021565;28;20086;-84
2022/01/21 02:38:56;;;;;;;33.30;15.18;;;;;;;4.04;100.00;103639.44;5038974;28;20498;-84
2022/01/21 02:41:22;;;;;;;32.67;13.13;;;;;;;3.84;100.00;103612.78;5011993;28;20017;-84
2022/01/21 02:43:48;;;;;;;43.55;18.50;;;;;;;4.00;100.00;103634.31;5024670;28;20024;-84
2022/01/21 02:46:16;;;;;;;40.53;16.77;;;;;;;4.07;100.00;103643.78;5038084;28;20033;-83
2022/01/21 02:48:42;;;;;;;43.88;17.42;;;;;;;4.05;100.00;103629.66;5007042;28;20032;-82
2022/01/21 02:51:10;;;;;;;45.25;18.80;;;;;;;4.08;100.00;103646.38;5015075;28;20036;-84
2022/01/21 02:54:04;;;;;;;42.85;17.30;;;;;;;3.93;100.00;103617.72;5016954;28;20071;-85
2022/01/21 02:56:23;;;;;;;42.30;17.15;;;;;;;4.04;100.00;103631.44;5023925;28;20545;-84
2022/01/21 02:58:49;;;;;;;38.50;15.35;;;;;;;3.97;100.00;103620.22;5024927;28;20116;-86
2022/01/21 03:01:24;;;;;;;49.35;19.70;;;;;;;4.04;100.00;103623.47;5026683;28;20371;-84
2022/01/21 03:03:50;;;;;;;45.60;17.58;;;;;;;4.04;100.00;103630.59;5012313;28;20025;-82
2022/01/21 03:06:19;;;;;;;45.65;19.70;;;;;;;3.83;100.00;103606.56;5008005;28;20036;-85
2022/01/21 03:08:46;;;;;;;36.67;16.48;;;;;;;3.90;100.00;103613.38;5040921;28;21649;-84
2022/01/21 03:11:12;;;;;;;36.88;17.27;;;;;;;3.93;100.00;103613.25;5037534;28;20494;-84
2022/01/21 03:13:40;;;;;;;36.35;18.08;;;;;;;4.00;100.00;103621.00;5026328;28;20020;-85
2022/01/21 03:16:05;;;;;;;39.15;16.73;;;;;;;3.97;100.00;103612.22;5040320;28;20021;-85
2022/01/21 03:18:31;;;;;;;39.53;17.00;;;;;;;4.09;100.00;103637.47;5011835;28;20043;-82
2022/01/21 03:20:57;;;;;;;40.47;18.13;;;;;;;4.07;100.00;103633.13;5026322;28;20029;-86
2022/01/21 03:23:24;;;;;;;44.55;18.98;;;;;;;4.08;100.00;103635.75;5042478;28;20043;-85
2022/01/21 03:25:50;;;;;;;35.75;16.63;;;;;;;4.06;100.00;103634.94;5011896;28;20090;-83
2022/01/21 03:28:17;;;;;;;38.75;18.35;;;;;;;3.89;100.00;103603.69;5016609;28;20040;-85
2022/01/21 03:30:43;;;;;;;42.85;19.45;;;;;;;4.05;100.00;103638.53;5043855;28;20111;-85
2022/01/21 03:33:09;;;;;;;37.78;16.73;;;;;;;4.06;100.00;103639.41;5022746;28;20495;-82
2022/01/21 03:35:34;;;;;;;34.58;17.52;;;;;;;4.06;100.00;103637.59;5024333;28;20028;-84
2022/01/21 03:38:00;;;;;;;44.53;16.88;;;;;;;4.03;100.00;103628.88;5036595;28;20038;-83
2022/01/21 03:40:26;;;;;;;32.22;16.00;;;;;;;4.03;100.00;103624.41;5043529;28;20532;-86
2022/01/21 03:42:51;;;;;;;40.08;16.92;;;;;;;4.09;100.00;103632.13;5013989;28;20072;-84
2022/01/21 03:45:17;;;;;;;32.97;16.48;;;;;;;4.13;100.00;103640.88;5007997;28;20072;-84
2022/01/21 03:47:44;;;;;;;31.65;16.77;;;;;;;4.11;100.00;103632.94;5045768;28;20454;-84
2022/01/21 03:50:30;;;;;;;39.90;18.75;;;;;;;4.06;100.00;103636.72;5042577;28;20044;-85
2022/01/21 03:52:56;;;;;;;33.90;15.77;;;;;;;4.11;100.00;103645.41;5023100;28;20032;-85
2022/01/21 03:55:22;;;;;;;37.58;17.90;;;;;;;4.09;100.00;103636.59;5040340;28;20039;-85
2022/01/21 03:57:47;;;;;;;33.05;16.27;;;;;;;4.02;100.00;103632.44;5012212;28;20040;-82
2022/01/21 04:00:17;;;;;;;36.63;16.38;;;;;;;3.94;100.00;103611.47;5031217;28;20039;-82
2022/01/21 04:02:43;;;;;;;35.63;16.42;;;;;;;4.04;100.00;103626.13;5040717;28;20123;-83
2022/01/21 04:05:09;;;;;;;36.85;16.05;;;;;;;4.06;100.00;103636.72;5026527;28;20540;-84
2022/01/21 04:07:36;;;;;;;34.88;17.00;;;;;;;3.95;100.00;103615.88;5042224;28;20047;-83
2022/01/21 04:10:03;;;;;;;32.45;13.52;;;;;;;3.74;100.00;103583.88;5040793;28;20051;-83
2022/01/21 04:12:29;;;;;;;38.38;16.27;;;;;;;4.00;100.00;103629.00;5043187;28;20048;-82
2022/01/21 04:14:56;;;;;;;31.63;15.38;;;;;;;4.02;100.00;103632.44;5021580;28;20033;-82
2022/01/21 04:17:23;;;;;;;26.92;12.60;;;;;;;4.04;100.00;103638.59;5027568;28;20505;-82
2022/01/21 04:19:48;;;;;;;34.17;15.13;;;;;;;3.99;100.00;103628.09;5029666;28;20025;-84
2022/01/21 04:22:14;;;;;;;28.38;14.57;;;;;;;3.97;100.00;103625.53;5047823;28;20051;-82
2022/01/21 04:24:40;;;;;;;33.78;15.13;;;;;;;3.93;100.00;103625.72;5039798;28;20040;-82
2022/01/21 04:27:06;;;;;;;28.52;14.73;;;;;;;3.96;100.00;103628.25;5028644;28;20130;-83
2022/01/21 04:29:31;;;;;;;29.45;12.43;;;;;;;3.96;100.00;103623.78;5023672;28;20047;-83
2022/01/21 04:31:57;;;;;;;21.63;10.20;;;;;;;4.07;100.00;103630.47;5026089;28;20074;-85
2022/01/21 04:34:23;;;;;;;31.30;13.75;;;;;;;4.04;100.00;103631.44;5025741;28;20073;-82
2022/01/21 04:36:49;;;;;;;25.08;13.00;;;;;;;4.02;100.00;103622.66;5040146;28;20043;-83
2022/01/21 04:39:21;;;;;;;28.30;12.57;;;;;;;4.04;100.00;103625.28;5026048;28;20068;-82
2022/01/21 04:47:17;;;;;;;21.00;11.35;;;;;;;4.02;100.00;103629.78;5040819;28;20029;-83
2022/01/21 04:49:44;;;;;;;26.73;11.98;;;;;;;3.93;100.00;103621.25;5042664;28;20036;-83
2022/01/21 04:52:09;;;;;;;22.20;10.77;;;;;;;4.00;100.00;103627.19;5023873;28;20131;-83
2022/01/21 04:54:37;;;;;;;17.67;8.93;;;;;;;4.02;100.00;103630.66;5049101;28;20112;-83
2022/01/21 04:57:04;;;;;;;20.25;10.25;;;;;;;4.01;100.00;103615.59;5016990;28;20036;-82
2022/01/21 04:59:30;;;;;;;21.55;10.90;;;;;;;3.95;100.00;103606.09;5050835;28;20070;-84
2022/01/21 05:01:56;;;;;;;28.17;10.73;;;;;;;4.06;100.00;103623.41;5018409;28;20040;-83
2022/01/21 05:04:22;;;;;;;18.25;9.65;;;;;;;3.99;100.00;103617.47;5034637;28;20523;-84
2022/01/21 05:06:49;;;;;;;23.05;10.25;;;;;;;4.04;100.00;103628.78;5046148;28;20044;-84
2022/01/21 05:09:16;;;;;;;21.65;8.80;;;;;;;4.01;100.00;103628.06;5034873;28;20037;-83
2022/01/21 05:11:43;;;;;;;18.35;8.52;;;;;;;3.96;100.00;103613.13;5062640;28;20127;-83
2022/01/21 05:14:18;;;;;;;21.75;8.98;;;;;;;3.96;100.00;103610.47;5031238;28;20091;-82
2022/01/21 05:16:49;;;;;;;15.07;8.00;;;;;;;3.81;100.00;103580.94;5017337;28;20056;-83
2022/01/21 05:19:17;;;;;;;17.42;8.35;;;;;;;3.94;100.00;103609.69;5010039;28;20119;-83
2022/01/21 05:21:44;;;;;;;22.08;9.52;;;;;;;4.02;100.00;103630.66;5028848;28;20490;-83
2022/01/21 05:24:10;;;;;;;17.63;8.10;;;;;;;3.95;100.00;103629.19;5016637;28;20490;-83
2022/01/21 05:26:37;;;;;;;18.48;8.55;;;;;;;4.00;100.00;103634.31;5012624;28;20070;-84
2022/01/21 05:29:08;;;;;;;20.02;7.40;;;;;;;4.01;100.00;103633.38;5049042;28;20060;-85
2022/01/21 05:31:34;;;;;;;14.02;7.15;;;;;;;3.82;100.00;103602.19;5045692;28;20976;-81
2022/01/21 05:34:00;;;;;;;14.15;7.28;;;;;;;4.00;100.00;103621.00;5011277;28;20039;-83
2022/01/21 05:36:26;;;;;;;15.68;7.03;;;;;;;4.02;100.00;103633.31;5010406;28;20090;-83
2022/01/21 05:38:57;;;;;;;18.45;7.03;;;;;;;3.94;100.00;103623.00;5023445;28;20044;-81
2022/01/21 05:41:23;;;;;;;14.15;6.80;;;;;;;3.95;100.00;103616.72;5041805;28;20047;-82
2022/01/21 05:43:58;;;;;;;17.88;7.13;;;;;;;3.91;100.00;103625.75;5042655;28;20529;-82
2022/01/21 05:46:44;;;;;;;18.85;7.07;;;;;;;3.96;100.00;103639.75;5039052;28;20158;-84
2022/01/21 05:49:11;;;;;;;15.88;7.05;;;;;;;3.97;100.00;103638.84;5040968;28;20036;-82
2022/01/21 05:51:38;;;;;;;19.42;6.55;;;;;;;3.89;100.00;103627.63;5045499;28;20033;-83
2022/01/21 05:54:08;;;;;;;12.73;6.32;;;;;;;4.01;100.00;103628.06;5027233;28;20065;-81
2022/01/21 05:56:34;;;;;;;16.65;5.97;;;;;;;4.01;100.00;103625.41;5009067;28;20438;-82
2022/01/21 05:59:00;;;;;;;12.23;5.85;;;;;;;3.91;100.00;103608.94;5041565;28;20040;-83
2022/01/21 06:01:27;;;;;;;14.93;6.93;;;;;;;4.01;100.00;103630.72;5023994;28;20090;-83
2022/01/21 06:03:53;;;;;;;13.27;5.90;;;;;;;3.97;100.00;103630.84;5037690;28;20024;-81
2022/01/21 06:06:19;;;;;;;15.20;6.25;;;;;;;3.93;100.00;103629.22;5007678;28;20409;-84
2022/01/21 06:08:44;;;;;;;16.23;6.47;;;;;;;3.95;100.00;103626.53;5008006;28;20033;-82
2022/01/21 06:11:10;;;;;;;13.90;6.95;;;;;;;3.94;100.00;103632.75;5039467;28;20040;-82
2022/01/21 06:13:37;;;;;;;12.57;5.35;;;;;;;3.80;100.00;103611.16;5028620;28;20044;-82
2022/01/21 06:16:03;;;;;;;16.98;5.65;;;;;;;3.90;100.00;103634.69;5025321;28;20032;-82
2022/01/21 06:18:29;;;;;;;19.00;5.53;;;;;;;3.81;100.00;103620.88;5042691;28;20401;-83
2022/01/21 06:20:54;;;;;;;21.40;5.63;;;;;;;3.92;100.00;103640.81;5044837;28;21727;-82
2022/01/21 06:23:20;;;;;;;18.73;5.88;;;;;;;3.88;100.00;103633.88;5008252;28;20040;-84
2022/01/21 06:25:45;;;;;;;12.30;5.47;;;;;;;3.91;100.00;103638.22;5038966;28;20028;-83
2022/01/21 06:28:11;;;;;;;15.63;6.38;;;;;;;3.91;100.00;103636.41;5025218;28;20624;-84
2022/01/21 06:30:37;;;;;;;13.38;5.50;;;;;;;3.91;100.00;103641.72;5030018;28;20549;-82
2022/01/21 06:33:03;;;;;;;13.15;5.60;;;;;;;3.88;100.00;103646.31;5012259;28;20124;-83
2022/01/21 06:35:29;;;;;;;11.55;4.97;;;;;;;3.84;100.00;103640.25;5048169;28;20115;-83
2022/01/21 06:37:54;;;;;;;13.10;5.90;;;;;;;3.81;100.00;103635.06;5030662;28;20040;-86
2022/01/21 06:40:20;;;;;;;14.40;5.15;;;;;;;3.79;100.00;103636.91;5025934;28;20330;-83
2022/01/21 06:42:47;;;;;;;13.57;4.72;;;;;;;3.67;100.00;103626.75;5040245;28;20032;-83
2022/01/21 06:45:12;;;;;;;10.32;5.03;;;;;;;3.82;100.00;103628.81;5039891;28;20506;-84
2022/01/21 06:47:38;;;;;;;15.77;6.88;;;;;;;3.90;100.00;103636.47;5013888;28;20042;-84
2022/01/21 06:50:05;;;;;;;14.18;5.55;;;;;;;4.00;100.00;103650.31;5037732;28;20045;-82
2022/01/21 06:52:30;;;;;;;10.52;4.70;;;;;;;4.02;100.00;103653.75;5024403;28;20521;-83
2022/01/21 06:54:57;;;;;;;12.48;4.55;;;;;;;3.67;100.00;103589.50;5006332;28;20123;-83
2022/01/21 06:57:23;;;;;;;16.60;5.32;;;;;;;3.97;100.00;103652.16;5038456;28;20363;-83
2022/01/21 06:59:48;;;;;;;13.82;4.57;;;;;;;3.96;100.00;103647.75;5028168;28;20044;-82
2022/01/21 07:02:15;;;;;;;14.50;5.10;;;;;;;3.82;100.00;103642.13;5033957;28;20028;-85
2022/01/21 07:04:40;;;;;;;12.95;4.22;;;;;;;3.82;100.00;103650.09;5024051;28;21587;-83
2022/01/21 07:07:06;;;;;;;16.48;4.40;;;;;;;3.87;100.00;103657.91;5025873;28;20044;-83
2022/01/21 07:09:34;;;;;;;17.67;4.45;;;;;;;3.94;100.00;103649.63;5026574;28;20032;-84
2022/01/21 07:12:00;;;;;;;16.90;5.03;;;;;;;4.04;100.00;103659.88;5042152;28;20036;-83
2022/01/21 07:14:25;;;;;;;12.05;3.78;;;;;;;3.99;100.00;103648.56;5059386;28;20036;-84
2022/01/21 07:16:51;;;;;;;10.85;2.80;;;;;;;4.09;100.00;103656.09;5026924;28;20043;-84
2022/01/21 07:19:17;;;;;;;9.73;3.80;;;;;;;4.17;100.00;103659.31;5050408;28;20029;-84
2022/01/21 07:21:42;;;;;;;17.85;4.25;;;;;;;4.25;100.00;103655.47;5028001;28;20068;-83
2022/01/21 07:24:08;;;;;;;9.43;2.92;;;;;;;4.28;100.00;103648.22;5042084;28;20051;-82
2022/01/21 07:26:34;;;;;;;9.02;3.60;;;;;;;4.21;100.00;103640.53;5042274;28;20040;-82
2022/01/21 07:29:01;;;;;;;10.27;3.38;;;;;;;4.16;99.27;103627.44;5043787;28;20469;-84
2022/01/21 07:31:26;;;;;;;13.52;4.43;;;;;;;4.33;98.29;103654.22;5011522;28;20038;-82
2022/01/21 07:33:52;;;;;;;11.75;4.10;;;;;;;4.34;98.66;103652.41;5011533;28;20036;-84
2022/01/21 07:36:18;;;;;;;11.70;4.38;;;;;;;4.27;98.67;103654.47;5030486;28;20051;-84
2022/01/21 07:38:44;;;;;;;12.32;5.60;;;;;;;4.22;98.51;103664.47;5006233;28;20052;-83
2022/01/21 07:41:09;;;;;;;13.63;6.50;;;;;;;4.15;98.95;103647.00;5047721;28;20036;-84
2022/01/21 07:43:35;;;;;;;11.55;6.55;;;;;;;4.07;99.67;103641.13;5017581;28;20338;-83
2022/01/21 07:46:01;;;;;;;9.18;4.07;;;;;;;4.10;99.65;103649.88;5022370;28;20403;-83
2022/01/21 07:48:26;;;;;;;10.57;4.07;;;;;;;3.94;99.77;103623.00;5021644;28;20044;-83
2022/01/21 07:50:52;;;;;;;8.95;3.38;;;;;;;4.13;99.33;103656.88;5022019;28;20032;-83
2022/01/21 07:53:18;;;;;;;15.98;4.43;;;;;;;4.11;99.26;103658.72;5052452;28;20047;-82
2022/01/21 07:55:50;;;;;;;14.93;5.38;;;;;;;4.09;99.00;103658.75;5016061;28;20788;-83
2022/01/21 07:58:16;;;;;;;10.30;4.50;;;;;;;4.08;98.99;103649.06;5050259;28;20029;-84
2022/01/21 08:00:42;;;;;;;8.98;4.25;;;;;;;4.03;98.89;103640.38;5033192;28;20125;-82
2022/01/21 08:03:08;;;;;;;17.02;4.32;;;;;;;3.98;98.68;103637.03;5036098;28;20032;-82
2022/01/21 08:05:34;;;;;;;10.77;3.83;;;;;;;4.02;98.23;103657.25;5026036;28;20033;-83
2022/01/21 08:08:01;;;;;;;9.50;3.53;;;;;;;4.03;98.43;103656.34;5033686;28;20032;-82
2022/01/21 08:10:26;;;;;;;13.25;4.18;;;;;;;3.94;98.69;103646.06;5049560;28;20482;-83
2022/01/21 08:12:55;;;;;;;12.25;3.83;;;;;;;4.03;98.86;103669.66;5027983;28;20174;-83
2022/01/21 08:15:21;;;;;;;11.63;4.20;;;;;;;3.97;98.91;103653.97;5020035;28;20073;-83
2022/01/21 08:17:47;;;;;;;13.82;3.72;;;;;;;4.03;98.58;103663.50;5015525;28;20040;-84
2022/01/21 08:20:12;;;;;;;15.18;4.13;;;;;;;3.99;98.81;103659.19;5046499;28;20094;-83
2022/01/21 08:22:39;;;;;;;14.65;4.60;;;;;;;4.01;98.90;103660.00;5032212;28;20475;-82
2022/01/21 08:25:06;;;;;;;13.55;4.18;;;;;;;3.96;98.67;103657.53;5044914;28;20052;-83
2022/01/21 08:27:32;;;;;;;12.13;4.40;;;;;;;3.97;99.15;103672.59;5051348;28;20119;-82
2022/01/21 08:29:57;;;;;;;13.35;4.55;;;;;;;3.96;99.12;103673.50;5016421;28;20466;-82
2022/01/21 08:32:23;;;;;;;15.45;4.60;;;;;;;3.93;99.37;103679.81;5026750;28;20451;-82
2022/01/21 08:34:49;;;;;;;12.23;4.20;;;;;;;3.88;99.79;103668.47;5034733;28;20471;-82
2022/01/21 08:37:16;;;;;;;10.57;4.53;;;;;;;3.94;100.00;103678.00;5067593;28;20037;-83
2022/01/21 08:39:43;;;;;;;10.88;3.83;;;;;;;3.93;100.00;103684.28;5033360;28;20044;-82
2022/01/21 08:42:10;;;;;;;13.68;4.68;;;;;;;3.88;100.00;103679.13;5050235;28;20447;-82
2022/01/21 08:44:36;;;;;;;10.77;5.20;;;;;;;3.91;100.00;103679.00;5027989;28;20466;-83
2022/01/21 08:47:02;;;;;;;14.43;5.00;;;;;;;3.90;100.00;103669.28;5016449;28;20089;-82
2022/01/21 08:49:27;;;;;;;18.35;4.95;;;;;;;3.59;100.00;103612.88;5032155;28;20029;-84
2022/01/21 08:51:57;;;;;;;14.23;5.38;;;;;;;3.93;100.00;103671.81;5033159;28;20033;-83
2022/01/21 08:54:26;;;;;;;15.57;5.88;;;;;;;3.91;100.00;103668.34;5049464;28;20058;-86
2022/01/21 08:56:54;;;;;;;12.18;5.43;;;;;;;3.83;100.00;103650.97;5046287;28;20071;-83
2022/01/21 08:59:20;;;;;;;16.42;6.57;;;;;;;3.88;100.00;103654.31;5017153;28;20036;-82
2022/01/21 09:01:47;;;;;;;25.40;7.40;;;;;;;3.93;100.00;103658.50;5033821;28;20037;-84
2022/01/21 09:04:13;;;;;;;20.52;6.65;;;;;;;4.02;100.00;103677.72;5013248;28;20044;-82
2022/01/21 09:06:39;;;;;;;20.70;6.43;;;;;;;4.00;100.00;103660.94;5017807;28;20036;-82
2022/01/21 09:09:05;;;;;;;16.40;4.70;;;;;;;4.07;100.00;103665.06;5045467;28;20056;-83
2022/01/21 09:11:30;;;;;;;16.58;4.78;;;;;;;4.07;99.62;103665.94;5029181;28;20039;-83
2022/01/21 09:13:57;;;;;;;18.75;6.75;;;;;;;4.00;99.30;103644.97;5034528;28;20409;-83
2022/01/21 09:16:24;;;;;;;16.60;6.15;;;;;;;4.05;98.95;103648.28;5031542;28;20078;-83
2022/01/21 09:19:02;;;;;;;14.30;6.28;;;;;;;4.08;98.59;103653.53;5053763;28;20111;-82
2022/01/21 09:21:31;;;;;;;19.95;6.18;;;;;;;4.18;98.62;103673.50;5030066;28;20386;-83
2022/01/21 09:23:56;;;;;;;19.23;6.60;;;;;;;4.17;98.68;103674.44;5037808;28;20033;-83
2022/01/21 09:26:24;;;;;;;20.85;7.53;;;;;;;4.15;98.82;103674.50;5065204;28;20551;-84
2022/01/21 09:28:53;;;;;;;19.95;8.40;;;;;;;4.18;98.69;103674.38;5022123;28;20025;-85
2022/01/21 09:31:19;;;;;;;26.63;8.65;;;;;;;4.21;99.20;103680.50;5046870;28;20119;-82
2022/01/21 09:33:45;;;;;;;27.98;7.60;;;;;;;4.24;99.15;103680.38;5051772;28;20036;-81
2022/01/21 09:36:11;;;;;;;22.40;7.18;;;;;;;4.24;98.67;103673.25;5036049;28;20041;-83
2022/01/21 09:38:38;;;;;;;23.67;7.50;;;;;;;4.29;98.50;103681.94;5052714;28;20036;-83
2022/01/21 09:41:07;;;;;;;24.48;8.32;;;;;;;4.24;98.06;103665.28;5036956;28;20127;-82
2022/01/21 09:43:38;;;;;;;20.77;7.95;;;;;;;4.34;98.06;103679.94;5042681;28;20102;-82
2022/01/21 09:46:07;;;;;;;20.55;7.05;;;;;;;4.34;98.48;103673.72;5051733;28;20040;-81
2022/01/21 09:48:50;;;;;;;22.92;7.30;;;;;;;4.48;97.98;103678.50;5041378;28;20470;-82
2022/01/21 09:51:16;;;;;;;22.10;7.72;;;;;;;4.52;97.58;103674.75;5034482;28;20540;-81
2022/01/21 09:53:42;;;;;;;20.05;7.97;;;;;;;4.60;97.38;103683.28;5064247;28;20029;-80
2022/01/21 09:56:08;;;;;;;23.98;8.02;;;;;;;4.67;96.91;103687.44;5067041;28;20029;-80
2022/01/21 09:58:34;;;;;;;23.50;8.50;;;;;;;4.77;96.62;103690.59;5025555;28;20043;-80
2022/01/21 10:01:05;;;;;;;31.77;9.55;;;;;;;4.84;96.97;103692.94;5034066;28;20127;-82
2022/01/21 10:03:32;;;;;;;20.13;8.07;;;;;;;4.90;96.20;103681.13;5047590;28;20530;-80
2022/01/21 10:05:58;;;;;;;25.65;9.05;;;;;;;4.96;95.18;103688.84;5052557;28;20036;-81
2022/01/21 10:08:24;;;;;;;17.38;7.03;;;;;;;4.92;94.45;103659.72;5068958;28;20540;-81
2022/01/21 10:10:51;;;;;;;25.38;9.43;;;;;;;5.04;93.73;103680.50;5053745;28;20056;-79
2022/01/21 10:13:19;;;;;;;26.45;9.13;;;;;;;4.98;92.89;103662.13;5044371;28;20086;-81
2022/01/21 10:15:45;;;;;;;32.47;9.60;;;;;;;5.17;92.57;103695.03;5021148;28;20040;-79
2022/01/21 10:18:13;;;;;;;23.33;8.10;;;;;;;5.20;92.36;103697.56;5017313;28;20471;-81
2022/01/21 10:20:56;;;;;;;31.30;10.35;;;;;;;5.28;92.00;103702.56;5060421;28;20041;-81
2022/01/21 10:23:22;;;;;;;20.73;8.07;;;;;;;5.22;91.87;103690.38;5017212;28;20037;-79
2022/01/21 10:26:05;;;;;;;20.55;8.20;;;;;;;5.31;91.38;103690.88;5051933;28;20094;-79
2022/01/21 10:28:32;;;;;;;29.60;9.15;;;;;;;5.34;90.70;103693.41;5051283;28;20410;-80
2022/01/21 10:31:16;;;;;;;33.10;10.73;;;;;;;5.38;90.68;103700.34;5035923;28;20402;-80
2022/01/21 10:33:46;;;;;;;29.98;9.40;;;;;;;5.49;90.36;103704.25;5043331;28;20033;-80
2022/01/21 10:36:16;;;;;;;24.73;8.95;;;;;;;5.56;89.67;103694.16;5053037;28;20078;-80
2022/01/21 10:38:45;;;;;;;21.80;8.38;;;;;;;5.61;89.38;103692.16;5032520;28;20118;-81
2022/01/21 10:41:18;;;;;;;30.50;10.48;;;;;;;5.65;89.59;103679.53;5036307;28;20091;-81
2022/01/21 10:43:46;;;;;;;33.30;12.73;;;;;;;5.80;88.42;103699.31;5048648;28;20040;-80
2022/01/21 10:46:16;;;;;;;27.55;9.13;;;;;;;5.79;87.81;103693.06;5066755;28;20063;-79
2022/01/21 10:48:57;;;;;;;34.63;10.48;;;;;;;5.73;87.78;103675.53;5046639;28;20044;-79
2022/01/21 10:51:25;;;;;;;37.75;8.98;;;;;;;5.88;87.44;103694.47;5046221;28;20135;-81
2022/01/21 10:54:09;;;;;;;23.45;9.75;;;;;;;5.87;87.12;103684.69;5066947;28;20101;-80
2022/01/21 10:56:37;;;;;;;25.30;9.98;;;;;;;5.94;86.47;103695.06;5040985;28;20036;-79
2022/01/21 10:59:03;;;;;;;27.05;8.70;;;;;;;6.05;86.16;103696.34;5042186;28;20036;-80
2022/01/21 11:01:30;;;;;;;31.48;9.20;;;;;;;6.11;85.44;103694.25;5025487;28;20040;-83
2022/01/21 11:04:10;;;;;;;15.10;5.75;;;;;;;6.18;85.01;103684.13;5047391;28;20075;-78
2022/01/21 11:07:00;;;;;;;30.00;10.93;;;;;;;6.25;84.89;103687.38;5061866;28;20041;-80
2022/01/21 11:09:29;;;;;;;23.67;7.78;;;;;;;6.12;84.11;103669.25;5044839;28;20037;-80
2022/01/21 11:12:08;;;;;;;26.67;9.32;;;;;;;6.19;84.45;103674.28;5033715;28;20478;-79
2022/01/21 11:14:36;;;;;;;28.25;9.98;;;;;;;6.39;84.27;103680.38;5042762;28;20048;-79
2022/01/21 11:17:14;;;;;;;24.88;9.27;;;;;;;6.58;83.88;103684.78;5020378;28;20033;-82
2022/01/21 11:19:41;;;;;;;18.00;6.95;;;;;;;6.63;81.53;103682.75;5036350;28;20119;-80
2022/01/21 11:22:07;;;;;;;34.60;11.65;;;;;;;6.71;82.35;103685.91;5022328;28;20047;-82
2022/01/21 11:24:33;;;;;;;21.08;7.88;;;;;;;6.71;81.58;103666.31;5028046;28;20541;-84
2022/01/21 11:27:14;;;;;;;27.17;9.00;;;;;;;6.81;81.58;103671.13;5017164;28;20032;-80
2022/01/21 11:29:41;;;;;;;21.00;7.78;;;;;;;6.93;81.45;103669.63;5015832;28;20040;-83
2022/01/21 11:32:07;;;;;;;21.60;6.97;;;;;;;6.97;80.99;103652.44;5021996;28;20903;-82
2022/01/21 11:34:35;;;;;;;25.95;8.48;;;;;;;7.13;80.05;103673.91;5045491;28;20032;-80
2022/01/21 11:37:00;;;;;;;10.43;3.45;;;;;;;7.12;79.44;103674.88;5013328;28;20036;-79
2022/01/21 11:39:27;;;;;;;17.95;5.90;;;;;;;7.17;79.35;103666.56;5067186;28;21956;-81
2022/01/21 11:41:55;;;;;;;27.90;10.13;;;;;;;7.24;78.96;103670.66;5029809;28;20032;-83
2022/01/21 11:44:23;;;;;;;10.45;4.50;;;;;;;7.23;79.18;103671.59;5029649;28;20116;-81
2022/01/21 11:49:59;;;;;;;27.20;9.07;;;;;;;7.20;79.25;103675.31;4985827;28;20037;-80
2022/01/21 11:52:24;;;;;;;29.50;11.20;;;;;;;7.14;77.61;103648.00;5032091;28;20051;-83
2022/01/21 11:54:51;;;;;;;27.48;8.20;;;;;;;7.28;77.62;103648.16;5032941;28;20380;-81
2022/01/21 11:57:30;;;;;;;29.23;8.45;;;;;;;7.42;77.65;103658.09;5035137;28;20039;-81
2022/01/21 12:00:05;;;;;;;19.20;6.32;;;;;;;7.46;77.02;103659.63;5053541;28;20060;-80
2022/01/21 12:02:33;;;;;;;13.00;5.28;;;;;;;7.36;75.12;103656.63;5014944;28;20119;-79
2022/01/21 12:05:08;;;;;;;17.20;5.57;;;;;;;7.31;75.35;103647.97;5060454;28;20040;-79
2022/01/21 12:07:34;;;;;;;24.67;9.38;;;;;;;7.38;75.34;103653.84;5055746;28;20136;-79